createdAt,value
2019-06-20T00:03:05.677Z,18.10
2019-06-20T00:07:07.791Z,18.05
2019-06-20T00:11:09.884Z,18.06
2019-06-20T00:15:12.839Z,18.02
2019-06-20T00:19:14.584Z,17.99
2019-06-20T00:23:16.473Z,18.01
2019-06-20T00:27:18.536Z,17.94
2019-06-20T00:31:20.438Z,17.99
2019-06-20T00:35:22.314Z,18.02
2019-06-20T00:39:24.335Z,18.10
2019-06-20T00:43:26.145Z,18.05
2019-06-20T00:47:27.933Z,17.93
2019-06-20T00:51:29.791Z,18.08
2019-06-20T00:55:31.918Z,18.06
2019-06-20T00:59:33.670Z,18.02
2019-06-20T01:03:35.500Z,18.16
2019-06-20T01:07:37.267Z,18.03
2019-06-20T01:11:39.040Z,18.09
2019-06-20T01:15:40.794Z,18.10
2019-06-20T01:19:42.845Z,18.08
2019-06-20T01:23:44.591Z,18.11
2019-06-20T01:27:46.406Z,18.08
2019-06-20T01:31:48.155Z,18.09
2019-06-20T01:35:49.944Z,18.08
2019-06-20T01:39:51.650Z,18.14
2019-06-20T01:43:53.649Z,18.16
2019-06-20T01:47:55.488Z,18.13
2019-06-20T01:51:57.229Z,18.17
2019-06-20T01:55:59.235Z,18.14
2019-06-20T02:00:01.057Z,18.09
2019-06-20T02:04:03.481Z,18.07
2019-06-20T02:08:05.278Z,18.14
2019-06-20T02:12:07.441Z,18.11
2019-06-20T02:16:09.342Z,18.11
2019-06-20T02:20:27.133Z,18.09
2019-06-20T02:24:29.343Z,18.05
2019-06-20T02:28:31.193Z,18.09
2019-06-20T02:32:33.666Z,18.07
2019-06-20T02:36:35.881Z,17.98
2019-06-20T02:40:38.547Z,18.00
2019-06-20T02:44:40.428Z,17.96
2019-06-20T02:48:42.541Z,17.95
2019-06-20T02:52:44.624Z,17.91
2019-06-20T02:56:46.544Z,17.87
2019-06-20T03:00:56.150Z,17.88
2019-06-20T03:04:57.899Z,17.91
2019-06-20T03:08:59.867Z,17.85
2019-06-20T03:13:01.759Z,17.82
2019-06-20T03:17:03.799Z,17.75
2019-06-20T03:21:05.655Z,17.80
2019-06-20T03:25:07.475Z,17.77
2019-06-20T03:29:09.730Z,17.76
2019-06-20T03:33:11.557Z,17.70
2019-06-20T03:37:13.278Z,17.70
2019-06-20T03:41:15.024Z,17.69
2019-06-20T03:45:16.852Z,17.77
2019-06-20T03:49:18.874Z,17.75
2019-06-20T03:53:20.691Z,17.83
2019-06-20T03:57:22.751Z,17.68
2019-06-20T04:01:24.937Z,17.73
2019-06-20T04:05:26.994Z,17.73
2019-06-20T04:09:29.074Z,17.73
2019-06-20T04:13:30.889Z,17.60
2019-06-20T04:17:32.943Z,17.64
2019-06-20T04:21:35.239Z,17.58
2019-06-20T04:25:37.095Z,17.64
2019-06-20T04:29:39.128Z,17.59
2019-06-20T04:33:41.056Z,17.63
2019-06-20T04:37:42.758Z,17.66
2019-06-20T04:41:44.525Z,17.62
2019-06-20T04:45:46.636Z,17.67
2019-06-20T04:49:48.852Z,17.72
2019-06-20T04:53:50.667Z,17.76
2019-06-20T04:57:52.703Z,17.71
2019-06-20T05:01:54.456Z,17.74
2019-06-20T05:05:56.382Z,17.74
2019-06-20T05:09:58.285Z,17.83
2019-06-20T05:14:00.087Z,17.91
2019-06-20T05:18:02.441Z,17.89
2019-06-20T05:22:04.183Z,17.86
2019-06-20T05:26:05.976Z,17.90
2019-06-20T05:30:08.385Z,17.93
2019-06-20T05:34:10.417Z,17.99
2019-06-20T05:38:12.164Z,18.20
2019-06-20T05:42:13.924Z,18.16
2019-06-20T05:46:15.811Z,18.14
2019-06-20T05:50:18.291Z,18.09
2019-06-20T05:54:20.445Z,18.06
2019-06-20T05:58:22.771Z,18.10
2019-06-20T06:02:24.581Z,18.18
2019-06-20T06:06:26.928Z,18.08
2019-06-20T06:10:28.839Z,18.07
2019-06-20T06:14:31.599Z,18.14
2019-06-20T06:18:33.489Z,18.07
2019-06-20T06:22:35.251Z,18.21
2019-06-20T06:26:37.172Z,18.19
2019-06-20T06:30:39.262Z,18.08
2019-06-20T06:34:41.187Z,18.00
2019-06-20T06:38:42.921Z,18.11
2019-06-20T06:42:45.004Z,18.28
2019-06-20T06:46:54.176Z,18.22
2019-06-20T06:50:51.996Z,18.40
2019-06-20T06:54:53.807Z,18.44
2019-06-20T06:58:55.844Z,18.38
2019-06-20T07:02:58.035Z,18.38
2019-06-20T07:07:00.105Z,18.57
2019-06-20T07:11:01.867Z,18.79
2019-06-20T07:15:04.507Z,18.97
2019-06-20T07:19:06.651Z,19.08
2019-06-20T07:23:08.449Z,19.14
2019-06-20T07:27:10.357Z,19.46
2019-06-20T07:31:12.190Z,19.75
2019-06-20T07:35:14.346Z,19.70
2019-06-20T07:39:16.133Z,19.87
2019-06-20T07:43:18.029Z,19.85
2019-06-20T07:47:21.055Z,20.04
2019-06-20T07:51:22.870Z,20.15
2019-06-20T07:55:25.153Z,20.25
2019-06-20T07:59:26.999Z,20.34
2019-06-20T08:03:28.789Z,20.40
2019-06-20T08:07:35.541Z,20.49
2019-06-20T08:11:37.701Z,20.60
2019-06-20T08:15:39.951Z,20.72
2019-06-20T08:19:42.869Z,20.93
2019-06-20T08:23:45.399Z,21.14
2019-06-20T08:27:47.781Z,21.19
2019-06-20T08:31:49.786Z,21.13
2019-06-20T08:35:51.616Z,21.21
2019-06-20T08:39:56.756Z,21.64
2019-06-20T08:43:58.467Z,21.97
2019-06-20T08:48:02.693Z,22.31
2019-06-20T08:52:05.608Z,22.60
2019-06-20T08:56:07.733Z,22.64
2019-06-20T09:00:09.960Z,22.61
2019-06-20T09:04:12.096Z,22.61
2019-06-20T09:08:14.360Z,22.56
2019-06-20T09:12:16.511Z,22.71
2019-06-20T09:16:24.517Z,22.81
2019-06-20T09:20:22.565Z,23.14
2019-06-20T09:24:24.452Z,23.00
2019-06-20T09:28:26.588Z,22.97
2019-06-20T09:32:29.086Z,22.65
2019-06-20T09:36:30.881Z,22.76
2019-06-20T09:40:36.480Z,23.04
2019-06-20T09:44:38.664Z,23.30
2019-06-20T09:48:40.598Z,23.40
2019-06-20T09:52:43.349Z,23.69
2019-06-20T09:56:48.491Z,23.83
2019-06-20T10:00:50.861Z,24.03
2019-06-20T10:04:54.437Z,23.80
2019-06-20T10:08:56.598Z,24.03
2019-06-20T10:12:58.473Z,23.34
2019-06-20T10:17:00.357Z,23.16
2019-06-20T10:21:02.372Z,23.10
2019-06-20T10:25:04.683Z,22.94
2019-06-20T10:29:06.417Z,22.73
2019-06-20T10:33:08.376Z,22.61
2019-06-20T10:37:10.199Z,22.55
2019-06-20T10:41:12.056Z,22.22
2019-06-20T10:45:15.329Z,22.12
2019-06-20T10:49:17.760Z,22.03
2019-06-20T10:53:19.809Z,22.27
2019-06-20T10:57:21.701Z,22.75
2019-06-20T11:01:23.460Z,22.39
2019-06-20T11:05:25.285Z,22.59
2019-06-20T11:09:27.186Z,22.80
2019-06-20T11:13:29.107Z,22.93
2019-06-20T11:17:31.175Z,22.90
2019-06-20T11:21:47.617Z,22.79
2019-06-20T11:25:51.893Z,22.86
2019-06-20T11:29:54.699Z,22.82
2019-06-20T11:33:57.072Z,22.74
2019-06-20T11:38:01.121Z,22.98
2019-06-20T11:42:02.984Z,23.35
2019-06-20T11:46:04.968Z,23.53
2019-06-20T11:50:08.713Z,23.96
2019-06-20T11:54:10.530Z,24.09
2019-06-20T11:58:13.149Z,24.32
2019-06-20T12:02:15.706Z,24.44
2019-06-20T12:06:21.077Z,24.49
2019-06-20T12:10:25.487Z,24.47
2019-06-20T12:14:29.085Z,23.90
2019-06-20T12:18:31.331Z,23.62
2019-06-20T12:22:33.368Z,23.78
2019-06-20T12:26:35.872Z,23.12
2019-06-20T12:30:39.850Z,22.74
2019-06-20T12:34:42.939Z,22.49
2019-06-20T12:38:46.151Z,22.25
2019-06-20T12:42:57.429Z,21.96
2019-06-20T12:46:59.557Z,22.03
2019-06-20T12:51:04.586Z,22.13
2019-06-20T12:55:14.558Z,21.97
2019-06-20T12:59:25.357Z,22.05
2019-06-20T13:03:44.118Z,22.37
2019-06-20T13:07:51.435Z,22.48
2019-06-20T13:11:53.799Z,22.15
2019-06-20T13:15:56.157Z,21.96
2019-06-20T13:19:58.250Z,21.78
2019-06-20T13:24:00.068Z,21.68
2019-06-20T13:28:21.196Z,21.53
2019-06-20T13:32:35.687Z,21.28
2019-06-20T13:36:42.822Z,20.99
2019-06-20T13:40:50.786Z,20.77
2019-06-20T13:44:58.351Z,20.51
2019-06-20T13:49:03.173Z,20.29
2019-06-20T13:53:05.006Z,20.00
2019-06-20T13:57:06.883Z,20.06
2019-06-20T14:01:09.208Z,20.04
2019-06-20T14:05:12.154Z,20.09
2019-06-20T14:09:14.294Z,20.42
2019-06-20T14:13:19.534Z,20.68
2019-06-20T14:17:20.201Z,20.78
2019-06-20T14:21:22.001Z,20.99
2019-06-20T14:25:24.224Z,20.90
2019-06-20T14:29:26.812Z,20.73
2019-06-20T14:33:31.798Z,20.75
2019-06-20T14:37:33.095Z,20.70
2019-06-20T14:41:35.208Z,20.93
2019-06-20T14:45:38.143Z,20.94
2019-06-20T14:49:39.971Z,20.65
2019-06-20T14:53:43.912Z,20.58
2019-06-20T14:57:46.972Z,20.42
2019-06-20T15:01:50.635Z,20.19
2019-06-20T15:05:52.698Z,20.07
2019-06-20T15:09:55.266Z,20.25
2019-06-20T15:13:57.866Z,20.04
2019-06-20T15:17:59.795Z,19.97
2019-06-20T15:22:01.628Z,19.88
2019-06-20T15:26:03.503Z,19.72
2019-06-20T15:30:06.075Z,19.47
2019-06-20T15:34:08.297Z,19.55
2019-06-20T15:38:10.952Z,19.58
2019-06-20T15:42:13.655Z,19.76
2019-06-20T15:46:15.776Z,20.00
2019-06-20T15:50:17.951Z,20.06
2019-06-20T15:54:23.667Z,20.14
2019-06-20T15:58:24.936Z,20.28
2019-06-20T16:02:27.423Z,20.40
2019-06-20T16:06:29.386Z,20.68
2019-06-20T16:10:31.300Z,20.98
2019-06-20T16:14:33.416Z,21.07
2019-06-20T16:18:35.513Z,21.12
2019-06-20T16:22:37.673Z,21.18
2019-06-20T16:26:47.401Z,21.65
2019-06-20T16:30:49.293Z,21.77
2019-06-20T16:34:51.710Z,21.64
2019-06-20T16:38:54.028Z,21.76
2019-06-20T16:42:55.831Z,22.01
2019-06-20T16:46:57.799Z,22.45
2019-06-20T16:50:59.846Z,22.71
2019-06-20T16:55:01.594Z,23.11
2019-06-20T16:59:03.502Z,23.85
2019-06-20T17:03:05.484Z,24.52
2019-06-20T17:07:07.617Z,24.55
2019-06-20T17:11:09.356Z,24.59
2019-06-20T17:15:12.218Z,24.58
2019-06-20T17:19:14.245Z,24.97
2019-06-20T17:23:15.915Z,24.95
2019-06-20T17:27:18.007Z,24.54
2019-06-20T17:31:20.516Z,24.17
2019-06-20T17:35:22.393Z,24.11
2019-06-20T17:39:24.128Z,23.68
2019-06-20T17:43:26.228Z,23.36
2019-06-20T17:47:28.443Z,23.12
2019-06-20T17:51:30.581Z,22.83
2019-06-20T17:55:32.637Z,22.78
2019-06-20T17:59:34.686Z,22.65
2019-06-20T18:03:36.803Z,22.48
2019-06-20T18:07:38.899Z,22.34
2019-06-20T18:11:41.297Z,22.20
2019-06-20T18:15:43.131Z,22.02
2019-06-20T18:19:45.539Z,21.83
2019-06-20T18:23:47.587Z,21.58
2019-06-20T18:27:49.385Z,21.42
2019-06-20T18:31:51.156Z,21.59
2019-06-20T18:35:52.909Z,21.36
2019-06-20T18:39:54.631Z,21.28
2019-06-20T18:43:56.384Z,20.94
2019-06-20T18:47:58.791Z,20.86
2019-06-20T18:52:00.702Z,20.48
2019-06-20T18:56:03.014Z,20.19
2019-06-20T19:00:05.138Z,19.93
2019-06-20T19:04:07.145Z,19.70
2019-06-20T19:08:09.235Z,19.47
2019-06-20T19:12:11.587Z,19.42
2019-06-20T19:16:13.994Z,19.38
2019-06-20T19:20:16.346Z,19.09
2019-06-20T19:24:18.069Z,18.70
2019-06-20T19:28:20.151Z,18.36
2019-06-20T19:32:22.373Z,18.13
2019-06-20T19:36:24.574Z,18.02
2019-06-20T19:40:30.593Z,18.12
2019-06-20T19:44:33.832Z,18.00
2019-06-20T19:48:36.974Z,17.92
2019-06-20T19:52:39.567Z,18.04
2019-06-20T19:56:41.461Z,18.07
2019-06-20T20:00:44.163Z,17.99
2019-06-20T20:04:47.037Z,18.00
2019-06-20T20:08:49.653Z,17.96
2019-06-20T20:12:51.469Z,17.97
2019-06-20T20:16:53.984Z,18.09
2019-06-20T20:20:55.845Z,17.89
2019-06-20T20:24:58.698Z,17.82
2019-06-20T20:29:01.881Z,17.71
2019-06-20T20:33:04.886Z,17.62
2019-06-20T20:37:07.486Z,17.49
2019-06-20T20:41:09.704Z,17.42
2019-06-20T20:45:12.505Z,17.39
2019-06-20T20:49:15.017Z,17.36
2019-06-20T20:53:17.409Z,17.22
2019-06-20T20:57:20.377Z,17.10
2019-06-20T21:01:29.554Z,17.00
2019-06-20T21:05:32.126Z,16.96
2019-06-20T21:09:34.268Z,16.88
2019-06-20T21:13:37.224Z,16.91
2019-06-20T21:17:39.509Z,16.78
2019-06-20T21:21:41.593Z,16.74
2019-06-20T21:25:43.843Z,16.66
2019-06-20T21:29:45.828Z,16.60
2019-06-20T21:33:47.795Z,16.50
2019-06-20T21:37:50.332Z,16.49
2019-06-20T21:41:52.787Z,16.39
2019-06-20T21:45:55.466Z,16.30
2019-06-20T21:49:58.134Z,16.37
2019-06-20T21:53:59.991Z,16.28
2019-06-20T21:58:02.200Z,16.34
2019-06-20T22:02:05.562Z,16.37
2019-06-20T22:06:20.201Z,16.24
2019-06-20T22:10:11.972Z,16.16
2019-06-20T22:17:32.816Z,16.24
2019-06-20T22:21:35.935Z,16.20
2019-06-20T22:25:38.108Z,16.05
2019-06-20T22:29:40.242Z,16.06
2019-06-20T22:33:42.374Z,16.01
2019-06-20T22:37:44.190Z,15.92
2019-06-20T22:41:46.351Z,15.89
2019-06-20T22:45:48.295Z,15.85
2019-06-20T22:49:50.426Z,15.80
2019-06-20T22:53:52.650Z,15.84
2019-06-20T22:57:54.759Z,15.71
2019-06-20T23:01:57.725Z,15.68
2019-06-20T23:05:59.980Z,15.61
2019-06-20T23:10:10.624Z,15.75
2019-06-20T23:14:06.521Z,15.47
2019-06-20T23:18:11.110Z,15.53
2019-06-20T23:22:13.128Z,15.53
2019-06-20T23:26:15.170Z,15.56
2019-06-20T23:30:19.305Z,15.47
2019-06-20T23:34:21.792Z,15.48
2019-06-20T23:38:24.130Z,15.47
2019-06-20T23:42:25.897Z,15.48
2019-06-20T23:46:28.305Z,15.48
2019-06-20T23:50:30.233Z,15.46
2019-06-20T23:54:33.456Z,15.40
2019-06-20T23:58:35.222Z,15.34
